EKSP/SKS METAR and TAF weather

Enter ICAO airport designator
Station Type Date Time Source
EKSP METAR 2021/10/22 18:20 UTC NOAA

EKSP 221820Z 29015KT 9999 FEW030CB FEW060 SCT110 07/03 Q1009


Station Type Date Time Source
EKSP Decoded METAR 2021/10/22 18:20 UTC NOAA

Skrydstrup, Denmark (EKSP) 55-14N 009-16E 47M
Oct 22, 2021 - 02:20 PM EDT / 2021.10.22 1820 UTC
Wind: from the WNW (290 degrees) at 17 MPH (15 KT):0
Visibility: greater than 7 mile(s):0
Sky conditions: partly cloudy
Weather: Cumulonimbus clouds observed
Temperature: 44 F (7 C)
Dew Point: 37 F (3 C)
Relative Humidity: 75%
Pressure (altimeter): 29.80 in. Hg (1009 hPa)
ob: EKSP 221820Z 29015KT 9999 FEW030CB FEW060 SCT110 07/03 Q1009
cycle: 18

Station Type Date Time Source
EKSP TAF 2021/10/22 18:30 UTC NOAA

TAF EKSP 221706Z 2218/2318 28010KT 9999 SCT040
TEMPO 2218/2303 28012G25KT -SHRA FEW020CB
BECMG 2312/2315 24006KT
BECMG 2316/2318 18006KT

Example: see airport list